Time;durP1;ratioP1;P1;durP2;ratioP2;P2;SDS_P1;SDS_P2;PMS_P1;PMS_P2;Temp;Humidity;BMP_temperature;BMP_pressure;BME280_temperature;BME280_humidity;BME280_pressure;Samples;Min_cycle;Max_cycle;Signal;HPM_P1;HPM_P2
2022/04/29 00:00:42;;;;;;;10.05;8.00;;;;;;;13.23;60.50;100986.84;5011541;28;20105;-84
2022/04/29 00:03:09;;;;;;;9.93;7.18;;;;;;;13.39;60.29;100989.09;4995271;28;20033;-83
2022/04/29 00:05:36;;;;;;;10.18;7.57;;;;;;;13.39;59.71;100988.25;4998349;28;20025;-84
2022/04/29 00:08:05;;;;;;;12.10;8.43;;;;;;;13.39;60.22;100985.56;4998260;28;20030;-85
2022/04/29 00:10:31;;;;;;;14.82;7.88;;;;;;;13.07;60.55;100978.34;4997874;28;20104;-84
2022/04/29 00:12:57;;;;;;;9.43;7.72;;;;;;;13.19;60.87;100979.16;4998327;28;20459;-85
2022/04/29 00:15:22;;;;;;;9.55;8.23;;;;;;;13.34;60.71;100974.34;5014921;28;20029;-85
2022/04/29 00:17:48;;;;;;;9.57;7.88;;;;;;;13.37;60.00;100968.72;4998368;28;20033;-84
2022/04/29 00:20:14;;;;;;;10.15;7.82;;;;;;;13.36;60.27;100962.50;4998232;28;20069;-85
2022/04/29 00:22:40;;;;;;;13.25;8.43;;;;;;;13.37;60.37;100963.34;4998227;28;20107;-85
2022/04/29 00:25:07;;;;;;;9.73;7.90;;;;;;;13.38;60.72;100962.38;4998154;28;20024;-84
2022/04/29 00:27:32;;;;;;;10.27;7.72;;;;;;;13.38;60.78;100957.00;4997919;28;20026;-84
2022/04/29 00:29:58;;;;;;;10.70;8.25;;;;;;;13.33;60.95;100954.69;5014653;28;20375;-84
2022/04/29 00:32:23;;;;;;;10.27;8.35;;;;;;;13.30;60.52;100959.47;5014352;28;20027;-85
2022/04/29 00:34:51;;;;;;;9.55;7.50;;;;;;;13.34;60.84;100945.66;4997865;28;20542;-84
2022/04/29 00:37:17;;;;;;;9.68;7.65;;;;;;;13.38;60.41;100949.78;5014687;28;20022;-85
2022/04/29 00:39:43;;;;;;;9.55;7.47;;;;;;;13.39;60.67;100946.13;4998046;28;20059;-84
2022/04/29 00:42:18;;;;;;;10.32;7.82;;;;;;;13.39;60.14;100954.19;5014343;28;20049;-84
2022/04/29 00:44:45;;;;;;;10.35;7.40;;;;;;;13.34;59.89;100951.03;5014376;28;20021;-85
2022/04/29 00:47:13;;;;;;;10.70;7.82;;;;;;;13.31;60.24;100947.75;5013883;28;20026;-84
2022/04/29 00:49:38;;;;;;;12.65;8.25;;;;;;;13.23;61.02;100946.53;4998010;28;20029;-84
2022/04/29 00:52:10;;;;;;;12.50;8.23;;;;;;;13.22;60.65;100942.16;5014317;28;20036;-84
2022/04/29 00:54:37;;;;;;;13.57;8.88;;;;;;;13.25;60.48;100932.16;5014267;28;20095;-85
2022/04/29 00:57:06;;;;;;;12.38;8.55;;;;;;;13.29;60.18;100939.81;5013882;28;20030;-84
2022/04/29 00:59:50;;;;;;;10.02;7.97;;;;;;;13.29;60.59;100933.59;4997700;28;20025;-84
2022/04/29 01:02:16;;;;;;;13.43;8.73;;;;;;;13.18;61.14;100934.50;5013862;28;20030;-84
2022/04/29 01:04:52;;;;;;;10.63;8.30;;;;;;;13.04;61.37;100932.09;4997512;28;20098;-84
2022/04/29 01:07:17;;;;;;;12.20;8.02;;;;;;;12.98;61.77;100930.78;4997677;28;20423;-85
2022/04/29 01:09:42;;;;;;;11.32;8.02;;;;;;;13.04;61.35;100918.66;4997668;28;20082;-84
2022/04/29 01:12:08;;;;;;;12.20;8.82;;;;;;;13.09;60.82;100913.75;5013995;28;20034;-84
2022/04/29 01:14:34;;;;;;;12.23;8.98;;;;;;;13.08;60.94;100914.75;5014006;28;20029;-84
2022/04/29 01:17:00;;;;;;;13.55;9.60;;;;;;;13.06;61.03;100914.03;4997334;28;20017;-84
2022/04/29 01:19:25;;;;;;;12.60;9.27;;;;;;;13.03;61.45;100914.28;4997500;28;20071;-85
2022/04/29 01:21:51;;;;;;;11.68;8.68;;;;;;;13.06;61.07;100916.72;5017122;28;20022;-84
2022/04/29 01:24:16;;;;;;;14.55;9.25;;;;;;;13.12;61.04;100908.13;5001457;28;20087;-85
2022/04/29 01:26:42;;;;;;;12.55;8.93;;;;;;;13.12;60.96;100910.81;4999467;28;20029;-84
2022/04/29 01:29:08;;;;;;;14.82;9.20;;;;;;;13.08;60.80;100920.13;4998012;28;20087;-85
2022/04/29 01:31:34;;;;;;;12.43;8.70;;;;;;;12.99;61.33;100916.38;5004727;28;20018;-85
2022/04/29 01:34:00;;;;;;;12.20;8.85;;;;;;;13.02;61.47;100910.75;5001716;28;20112;-84
2022/04/29 01:36:25;;;;;;;12.40;8.07;;;;;;;13.03;60.98;100904.41;4997890;28;20492;-84
2022/04/29 01:38:51;;;;;;;12.88;8.82;;;;;;;13.02;60.98;100893.78;4997785;28;20044;-85
2022/04/29 01:41:16;;;;;;;11.52;8.52;;;;;;;12.97;60.79;100896.88;4981502;28;20116;-85
2022/04/29 01:43:41;;;;;;;12.55;8.88;;;;;;;13.00;60.86;100890.38;4997924;28;20036;-85
2022/04/29 01:46:07;;;;;;;12.68;8.63;;;;;;;13.04;60.74;100887.31;4997852;28;20128;-84
2022/04/29 01:48:32;;;;;;;13.52;8.85;;;;;;;13.08;60.62;100890.56;4997492;28;20061;-85
2022/04/29 01:50:57;;;;;;;14.82;8.98;;;;;;;13.00;60.84;100893.91;4997833;28;20022;-84
2022/04/29 01:53:23;;;;;;;10.93;8.73;;;;;;;12.96;60.55;100894.31;4997908;28;20406;-84
2022/04/29 01:55:48;;;;;;;12.00;8.48;;;;;;;12.95;60.88;100900.66;4997671;28;20042;-85
2022/04/29 01:58:13;;;;;;;11.38;9.00;;;;;;;13.08;60.60;100895.94;4997355;28;20034;-84
2022/04/29 02:00:39;;;;;;;10.90;8.82;;;;;;;12.88;60.54;100901.19;4997471;28;20049;-84
2022/04/29 02:03:05;;;;;;;11.35;8.32;;;;;;;12.82;60.96;100900.84;5014111;28;20026;-84
2022/04/29 02:05:30;;;;;;;11.05;8.30;;;;;;;12.87;60.97;100904.00;4997218;28;20049;-85
2022/04/29 02:07:57;;;;;;;13.82;8.93;;;;;;;12.73;61.46;100905.13;4997255;28;20022;-84
2022/04/29 02:10:23;;;;;;;13.18;9.18;;;;;;;12.68;61.29;100906.50;4997314;28;20026;-84
2022/04/29 02:12:48;;;;;;;12.30;9.35;;;;;;;12.43;61.72;100911.22;4997329;28;20025;-84
2022/04/29 02:15:14;;;;;;;12.50;9.23;;;;;;;12.27;61.69;100908.91;4997472;28;20490;-83
2022/04/29 02:17:39;;;;;;;12.88;9.20;;;;;;;12.43;61.76;100900.50;4996575;28;20479;-84
2022/04/29 02:20:05;;;;;;;10.63;8.38;;;;;;;12.55;61.74;100902.16;4996736;28;20029;-84
2022/04/29 02:22:30;;;;;;;12.40;9.20;;;;;;;12.61;61.71;100895.41;4997101;28;20022;-85
2022/04/29 02:24:57;;;;;;;10.52;8.65;;;;;;;12.58;61.71;100891.16;4997039;28;20026;-84
2022/04/29 02:27:23;;;;;;;12.80;8.90;;;;;;;12.54;61.92;100895.09;4997009;28;20112;-84
2022/04/29 02:29:48;;;;;;;11.50;8.90;;;;;;;12.64;61.65;100889.78;4997164;28;20108;-84
2022/04/29 02:32:13;;;;;;;11.77;9.10;;;;;;;12.76;60.94;100882.53;4996399;28;20045;-85
2022/04/29 02:34:40;;;;;;;13.15;8.52;;;;;;;12.80;61.09;100889.38;4997110;28;20029;-85
2022/04/29 02:37:06;;;;;;;11.18;8.63;;;;;;;12.80;60.89;100892.06;4996725;28;20022;-84
2022/04/29 02:39:31;;;;;;;14.00;9.55;;;;;;;12.76;61.05;100888.75;4997089;28;20379;-84
2022/04/29 02:41:56;;;;;;;11.50;9.00;;;;;;;12.78;61.47;100888.66;4996846;28;20017;-84
2022/04/29 02:44:22;;;;;;;14.73;9.52;;;;;;;12.67;61.60;100884.16;4996644;28;20029;-85
2022/04/29 02:49:31;;;;;;;13.18;9.68;;;;;;;12.63;61.52;100882.72;4999599;28;20033;-84
2022/04/29 02:51:56;;;;;;;13.07;9.20;;;;;;;12.58;61.90;100890.31;4996775;28;20117;-84
2022/04/29 02:54:22;;;;;;;12.90;9.15;;;;;;;12.58;61.64;100880.44;4996595;28;20120;-84
2022/04/29 02:56:50;;;;;;;11.13;8.85;;;;;;;12.60;61.79;100878.47;4996407;28;20029;-84
2022/04/29 02:59:16;;;;;;;13.70;9.60;;;;;;;12.60;62.06;100885.66;4996484;28;20029;-84
2022/04/29 03:01:41;;;;;;;15.15;10.00;;;;;;;12.59;62.02;100886.66;4996299;28;20472;-84
2022/04/29 03:04:07;;;;;;;13.65;9.32;;;;;;;12.60;61.61;100885.66;4996181;28;20048;-85
2022/04/29 03:06:32;;;;;;;12.40;9.80;;;;;;;12.65;61.54;100883.44;4996238;28;20036;-84
2022/04/29 03:08:58;;;;;;;11.95;9.15;;;;;;;12.64;61.54;100880.91;4996341;28;20030;-85
2022/04/29 03:11:24;;;;;;;13.50;9.77;;;;;;;12.58;62.29;100884.94;5013911;28;20018;-84
2022/04/29 03:13:49;;;;;;;13.57;9.40;;;;;;;12.56;61.96;100874.34;4996094;28;20058;-84
2022/04/29 03:16:14;;;;;;;13.18;9.13;;;;;;;12.53;62.30;100877.28;5013907;28;20033;-84
2022/04/29 03:18:40;;;;;;;12.10;9.18;;;;;;;12.54;62.02;100878.97;4995776;28;20028;-84
2022/04/29 03:21:05;;;;;;;12.25;9.38;;;;;;;12.54;62.06;100870.09;4996106;28;20083;-84
2022/04/29 03:23:30;;;;;;;13.55;9.00;;;;;;;12.53;62.16;100877.28;4996027;28;20388;-84
2022/04/29 03:25:56;;;;;;;12.38;9.52;;;;;;;12.50;62.37;100874.00;4996035;28;20479;-84
2022/04/29 03:28:21;;;;;;;11.35;9.43;;;;;;;12.47;62.39;100867.06;4995780;28;20026;-84
2022/04/29 03:30:47;;;;;;;11.63;8.90;;;;;;;12.31;62.76;100874.69;4995943;28;20101;-84
2022/04/29 03:33:13;;;;;;;12.45;9.45;;;;;;;12.37;63.08;100871.50;4996000;28;20148;-84
2022/04/29 03:35:43;;;;;;;11.93;8.63;;;;;;;12.38;62.68;100862.47;4995795;28;20376;-84
2022/04/29 03:38:09;;;;;;;13.05;9.57;;;;;;;12.43;62.92;100862.09;4995678;28;20539;-85
2022/04/29 03:40:34;;;;;;;12.30;9.38;;;;;;;12.45;62.41;100865.50;4995770;28;20173;-84
2022/04/29 03:43:00;;;;;;;12.80;9.65;;;;;;;12.46;62.61;100872.56;4995703;28;20104;-84
2022/04/29 03:45:27;;;;;;;12.13;9.43;;;;;;;12.39;63.35;100871.38;4994461;28;20388;-84
2022/04/29 03:47:56;;;;;;;12.88;9.00;;;;;;;12.40;63.16;100868.56;4995457;28;20104;-84
2022/04/29 03:50:25;;;;;;;12.23;9.70;;;;;;;12.36;63.10;100876.97;5013159;28;20117;-85
2022/04/29 03:52:52;;;;;;;12.50;9.23;;;;;;;12.39;63.37;100872.22;4995312;28;20029;-84
2022/04/29 03:55:20;;;;;;;10.80;8.95;;;;;;;12.44;63.19;100861.09;4995617;28;20021;-84
2022/04/29 03:57:45;;;;;;;14.95;10.07;;;;;;;12.43;62.79;100860.25;4995237;28;20081;-84
2022/04/29 04:00:11;;;;;;;15.18;9.90;;;;;;;12.38;63.10;100862.47;5011700;28;20184;-84
2022/04/29 04:02:37;;;;;;;14.88;9.77;;;;;;;12.38;63.54;100859.78;4979130;28;20084;-85
2022/04/29 04:05:02;;;;;;;13.75;9.88;;;;;;;12.39;63.49;100866.00;4995401;28;20053;-86
2022/04/29 04:07:27;;;;;;;14.85;9.93;;;;;;;12.34;63.49;100861.03;4995210;28;20045;-85
2022/04/29 04:09:53;;;;;;;13.35;9.68;;;;;;;12.32;63.83;100864.81;4995443;28;20034;-86
2022/04/29 04:12:18;;;;;;;12.07;9.13;;;;;;;12.38;63.79;100870.50;4995486;28;20156;-86
2022/04/29 04:14:43;;;;;;;13.35;9.45;;;;;;;12.37;63.55;100867.97;4995393;28;20072;-86
2022/04/29 04:17:09;;;;;;;10.43;9.20;;;;;;;12.33;63.66;100875.41;4995059;28;20061;-86
2022/04/29 04:19:37;;;;;;;13.45;10.07;;;;;;;12.12;63.85;100875.31;4995333;28;20117;-86
2022/04/29 04:22:04;;;;;;;16.02;9.73;;;;;;;12.15;63.58;100884.94;4979528;28;20028;-86
2022/04/29 04:24:29;;;;;;;12.00;8.95;;;;;;;12.22;64.03;100878.09;4997971;28;20038;-86
2022/04/29 04:26:55;;;;;;;12.30;9.20;;;;;;;12.18;63.16;100874.81;5004687;28;20112;-86
2022/04/29 04:29:20;;;;;;;14.10;9.88;;;;;;;12.20;63.55;100883.59;4995254;28;20407;-86
2022/04/29 04:31:47;;;;;;;13.20;9.50;;;;;;;12.18;63.37;100888.22;4993960;28;20034;-86
2022/04/29 04:36:56;;;;;;;12.70;10.05;;;;;;;12.16;64.16;100879.44;5011499;28;20033;-86
2022/04/29 04:39:21;;;;;;;13.88;9.90;;;;;;;12.19;64.12;100884.56;4995034;28;20113;-85
2022/04/29 04:41:48;;;;;;;14.32;10.30;;;;;;;12.20;63.79;100878.22;4978791;28;20021;-86
2022/04/29 04:44:13;;;;;;;12.27;10.00;;;;;;;12.13;64.52;100886.91;4994741;28;20109;-86
2022/04/29 04:46:38;;;;;;;13.65;10.30;;;;;;;12.04;64.56;100880.44;4994719;28;20112;-87
2022/04/29 04:49:04;;;;;;;18.10;15.70;;;;;;;12.16;64.71;100884.81;4997605;28;20037;-86
2022/04/29 04:51:29;;;;;;;14.15;11.07;;;;;;;12.17;64.71;100882.97;5011150;28;20018;-86
2022/04/29 04:53:54;;;;;;;16.17;10.38;;;;;;;11.99;64.91;100896.06;5011234;28;20108;-86
2022/04/29 04:56:20;;;;;;;15.30;10.48;;;;;;;12.09;64.66;100880.94;4997190;28;20029;-86
2022/04/29 04:58:45;;;;;;;15.77;10.38;;;;;;;12.11;64.58;100886.16;4994484;28;20048;-86
2022/04/29 05:01:11;;;;;;;13.25;10.32;;;;;;;12.14;64.62;100876.03;4999586;28;20029;-86
2022/04/29 05:03:36;;;;;;;13.77;10.50;;;;;;;12.16;64.44;100881.28;5013697;28;20115;-86
2022/04/29 05:06:03;;;;;;;13.50;10.52;;;;;;;12.14;64.63;100876.03;4966891;28;22098;-86
2022/04/29 05:08:29;;;;;;;16.85;12.15;;;;;;;12.20;64.57;100869.31;4992439;28;20572;-86
2022/04/29 05:10:54;;;;;;;17.88;11.45;;;;;;;12.25;64.81;100867.97;4975135;28;20038;-86
2022/04/29 05:13:19;;;;;;;17.70;11.70;;;;;;;12.24;64.55;100863.56;4974923;28;20035;-87
2022/04/29 05:15:44;;;;;;;14.57;11.02;;;;;;;12.24;64.87;100870.78;4990189;28;20038;-86
2022/04/29 05:18:10;;;;;;;14.95;11.88;;;;;;;12.23;64.89;100861.88;5006940;28;20048;-86
2022/04/29 05:20:35;;;;;;;15.98;11.50;;;;;;;12.29;64.68;100864.06;4978230;28;20053;-86
2022/04/29 05:23:01;;;;;;;17.20;12.50;;;;;;;12.33;64.86;100861.16;4990237;28;20472;-86
2022/04/29 05:25:26;;;;;;;17.85;12.45;;;;;;;12.27;65.14;100867.84;4984981;28;20125;-85
2022/04/29 05:27:51;;;;;;;16.40;12.02;;;;;;;12.30;65.18;100875.66;4990906;28;20391;-85
2022/04/29 05:30:17;;;;;;;16.02;12.32;;;;;;;12.33;64.91;100875.41;4974778;28;20161;-87
2022/04/29 05:32:42;;;;;;;18.88;13.10;;;;;;;12.29;64.83;100868.56;4974784;28;20018;-86
2022/04/29 05:35:09;;;;;;;16.95;13.98;;;;;;;12.22;65.12;100873.59;4976071;28;20029;-87
2022/04/29 05:37:35;;;;;;;17.90;13.70;;;;;;;12.13;65.43;100868.97;4993838;28;20030;-86
2022/04/29 05:42:44;;;;;;;18.25;13.88;;;;;;;12.26;65.63;100880.41;4992192;28;20073;-87
2022/04/29 05:45:10;;;;;;;17.30;12.80;;;;;;;12.34;65.65;100877.13;4993494;28;20511;-85
2022/04/29 05:47:35;;;;;;;16.30;12.40;;;;;;;12.32;65.81;100876.38;4991645;28;20516;-86
2022/04/29 05:50:01;;;;;;;16.20;11.75;;;;;;;12.32;65.70;100871.03;4973660;28;20018;-87
2022/04/29 05:52:26;;;;;;;14.45;11.23;;;;;;;12.31;65.92;100877.38;4973822;28;20250;-87
2022/04/29 05:54:51;;;;;;;15.30;10.85;;;;;;;12.32;65.75;100875.53;4990037;28;20026;-87
2022/04/29 05:57:17;;;;;;;14.90;12.02;;;;;;;12.27;65.73;100874.06;4990255;28;20118;-86
2022/04/29 05:59:42;;;;;;;15.73;11.35;;;;;;;12.34;66.24;100870.91;4994684;28;20029;-90
2022/04/29 06:02:08;;;;;;;15.77;12.20;;;;;;;12.39;66.23;100874.03;4980454;28;20423;-90
2022/04/29 06:04:34;;;;;;;18.63;13.35;;;;;;;12.37;65.97;100876.84;4979950;28;20072;-90
2022/04/29 06:06:59;;;;;;;16.58;13.05;;;;;;;12.37;66.22;100876.00;4980306;28;20022;-90
2022/04/29 06:09:25;;;;;;;18.27;12.18;;;;;;;12.35;65.71;100886.88;4983819;28;20428;-90
2022/04/29 06:11:51;;;;;;;15.80;12.15;;;;;;;12.32;66.63;100891.63;4984131;28;20535;-89
2022/04/29 06:14:16;;;;;;;16.52;12.80;;;;;;;12.36;66.58;100898.44;4983681;28;20026;-90
2022/04/29 06:16:43;;;;;;;14.60;12.65;;;;;;;12.24;67.01;100900.28;4983948;28;20022;-90
2022/04/29 06:32:37;;;;;;;17.67;13.90;;;;;;;12.24;66.05;100900.28;5017136;28;20076;-79
2022/04/29 06:35:04;;;;;;;19.55;14.43;;;;;;;12.21;66.36;100897.84;4981224;28;20038;-88
2022/04/29 06:37:29;;;;;;;19.40;13.25;;;;;;;12.18;65.86;100895.41;4996670;28;20022;-87
2022/04/29 06:39:54;;;;;;;20.13;14.80;;;;;;;12.15;66.39;100904.56;4997788;28;20034;-87
2022/04/29 06:42:20;;;;;;;18.98;13.82;;;;;;;12.14;66.72;100900.16;4998087;28;20486;-88
2022/04/29 06:44:45;;;;;;;17.38;14.38;;;;;;;12.25;66.89;100904.66;4981613;28;20072;-88
2022/04/29 06:47:10;;;;;;;18.67;13.95;;;;;;;12.28;66.60;100899.03;4998051;28;20030;-87
2022/04/29 06:49:36;;;;;;;19.33;14.60;;;;;;;12.34;66.66;100905.75;4982529;28;20109;-88
2022/04/29 06:52:02;;;;;;;19.63;14.68;;;;;;;12.27;66.48;100908.91;4998174;28;20026;-87
2022/04/29 06:54:27;;;;;;;18.13;13.70;;;;;;;12.31;66.28;100917.59;4998251;28;20319;-87
2022/04/29 06:56:53;;;;;;;16.48;14.70;;;;;;;12.24;66.67;100917.22;4997907;28;20492;-88
2022/04/29 06:59:19;;;;;;;16.85;14.07;;;;;;;12.37;66.27;100908.19;4981899;28;20443;-87
2022/04/29 07:01:44;;;;;;;18.48;13.63;;;;;;;12.42;66.14;100917.56;4982052;28;20030;-88
2022/04/29 07:04:11;;;;;;;18.58;14.55;;;;;;;12.47;66.61;100907.31;4986414;28;20475;-89
2022/04/29 07:06:36;;;;;;;17.92;13.95;;;;;;;12.52;66.09;100909.59;5001443;28;20021;-92
2022/04/29 07:09:02;;;;;;;19.90;13.65;;;;;;;12.43;65.93;100905.00;5002276;28;20383;-92
2022/04/29 07:11:31;;;;;;;20.40;13.88;;;;;;;12.39;66.77;100906.25;5002152;28;20033;-92
2022/04/29 07:13:59;;;;;;;17.45;14.70;;;;;;;12.48;66.13;100905.47;5002612;28;20034;-91
2022/04/29 07:16:24;;;;;;;17.73;14.13;;;;;;;12.42;66.56;100900.63;5002017;28;20534;-92
2022/04/29 07:18:49;;;;;;;21.20;13.95;;;;;;;12.45;67.06;100897.69;5001920;28;20025;-92
2022/04/29 07:21:15;;;;;;;18.13;14.50;;;;;;;12.45;66.84;100905.72;5001702;28;20018;-92
2022/04/29 07:23:40;;;;;;;18.08;14.07;;;;;;;12.43;66.71;100910.38;5001729;28;20061;-92
2022/04/29 07:26:05;;;;;;;18.83;14.60;;;;;;;12.49;66.77;100905.34;5018026;28;20030;-90
2022/04/29 07:28:31;;;;;;;17.83;14.73;;;;;;;12.48;66.76;100913.53;5001786;28;20031;-93
2022/04/29 07:31:00;;;;;;;17.83;14.43;;;;;;;12.55;66.93;100902.16;5001595;28;20112;-92
2022/04/29 07:33:25;;;;;;;18.38;14.40;;;;;;;12.60;66.40;100902.63;5018364;28;20026;-94
2022/04/29 07:44:03;;;;;;;18.48;14.88;;;;;;;12.56;66.60;100911.06;5020785;28;20048;-93
2022/04/29 07:46:28;;;;;;;18.40;15.25;;;;;;;12.63;66.70;100909.56;5001371;28;20463;-92
2022/04/29 07:48:53;;;;;;;17.10;15.20;;;;;;;12.70;66.59;100900.00;5002011;28;20056;-93
2022/04/29 07:51:19;;;;;;;21.30;15.48;;;;;;;12.70;66.65;100900.00;5001711;28;20021;-91
2022/04/29 07:53:44;;;;;;;20.25;14.82;;;;;;;12.67;66.69;100889.53;5001568;28;20041;-91
2022/04/29 07:56:09;;;;;;;20.00;14.10;;;;;;;12.65;67.05;100888.81;5001087;28;20026;-92
2022/04/29 07:58:35;;;;;;;18.98;14.77;;;;;;;12.62;67.19;100894.44;5000941;28;20025;-91
2022/04/29 08:01:01;;;;;;;18.02;14.27;;;;;;;12.63;67.26;100900.66;5017355;28;20025;-92
2022/04/29 08:03:27;;;;;;;20.40;14.93;;;;;;;12.64;67.33;100903.22;5001041;28;20033;-91
2022/04/29 08:05:53;;;;;;;20.17;14.45;;;;;;;12.61;67.24;100908.84;5017793;28;20096;-92
2022/04/29 08:08:19;;;;;;;21.25;14.70;;;;;;;12.55;67.34;100910.19;5001038;28;20064;-91
2022/04/29 08:14:06;;;;;;;18.90;14.20;;;;;;;12.62;67.35;100915.91;5035017;28;20032;-92
2022/04/29 08:16:32;;;;;;;22.98;15.18;;;;;;;12.70;67.16;100905.38;5016693;28;20037;-91
2022/04/29 08:18:57;;;;;;;20.80;15.05;;;;;;;12.76;67.02;100902.19;5002105;28;20026;-89
2022/04/29 08:21:23;;;;;;;20.13;15.25;;;;;;;12.89;67.59;100900.19;4991582;28;20026;-89
2022/04/29 08:23:48;;;;;;;19.25;14.93;;;;;;;12.97;66.89;100904.06;4990096;28;20037;-90
2022/04/29 08:26:13;;;;;;;18.95;14.38;;;;;;;13.01;66.79;100900.13;4993320;28;20060;-90
2022/04/29 08:28:41;;;;;;;18.08;15.55;;;;;;;13.00;66.19;100893.06;4977115;28;20055;-90
2022/04/29 08:31:06;;;;;;;19.85;14.10;;;;;;;13.08;66.60;100895.94;4993464;28;20383;-90
2022/04/29 08:33:32;;;;;;;17.02;14.38;;;;;;;13.14;66.43;100893.59;4996248;28;20033;-90
2022/04/29 08:35:58;;;;;;;21.67;14.90;;;;;;;13.16;66.55;100893.44;4995826;28;20113;-90
2022/04/29 08:38:23;;;;;;;19.98;15.23;;;;;;;13.22;66.68;100903.69;4969783;28;20058;-90
2022/04/29 08:40:48;;;;;;;20.85;15.10;;;;;;;13.28;66.36;100895.13;4997771;28;20125;-89
2022/04/29 08:43:15;;;;;;;22.10;15.32;;;;;;;13.23;65.65;100894.66;5008046;28;20053;-89
2022/04/29 08:45:42;;;;;;;20.35;15.23;;;;;;;13.29;65.49;100901.38;4980041;28;20061;-90
2022/04/29 08:48:08;;;;;;;20.55;15.20;;;;;;;13.29;65.79;100891.47;4992735;28;20018;-86
2022/04/29 08:50:33;;;;;;;17.95;14.50;;;;;;;13.35;65.41;100895.47;4985159;28;20034;-88
2022/04/29 08:52:59;;;;;;;22.25;14.88;;;;;;;13.49;65.99;100898.66;4975832;28;20376;-86
2022/04/29 09:01:00;;;;;;;20.48;14.82;;;;;;;13.59;64.51;100909.44;4992629;28;20037;-89
2022/04/29 09:03:25;;;;;;;25.02;15.68;;;;;;;13.55;65.00;100911.56;4959888;28;20113;-90
2022/04/29 09:05:51;;;;;;;18.02;14.85;;;;;;;13.54;64.10;100912.53;4992323;28;20478;-90
2022/04/29 09:08:19;;;;;;;18.20;14.70;;;;;;;13.53;64.99;100913.53;4976260;28;20019;-89
2022/04/29 09:10:58;;;;;;;20.85;15.77;;;;;;;13.51;65.33;100917.31;4971130;28;20049;-89
2022/04/29 09:13:28;;;;;;;22.40;15.70;;;;;;;13.48;65.51;100918.44;4974862;28;20138;-91
2022/04/29 09:15:58;;;;;;;22.13;15.40;;;;;;;13.45;66.32;100921.41;4976057;28;20018;-90
2022/04/29 09:18:42;;;;;;;22.52;16.77;;;;;;;13.38;65.92;100917.53;4967938;28;20352;-88
2022/04/29 09:21:09;;;;;;;20.90;16.45;;;;;;;13.42;66.97;100915.44;5000174;28;20109;-87
2022/04/29 09:23:41;;;;;;;23.85;16.50;;;;;;;13.42;67.04;100916.28;4976943;28;20464;-87
2022/04/29 09:26:06;;;;;;;21.60;16.08;;;;;;;13.43;66.96;100918.00;4977722;28;20037;-86
2022/04/29 09:28:33;;;;;;;21.90;16.15;;;;;;;13.50;66.79;100919.16;4994080;28;20076;-86
2022/04/29 09:30:59;;;;;;;19.92;15.75;;;;;;;13.50;66.87;100910.25;4977551;28;20025;-86
2022/04/29 09:33:25;;;;;;;18.92;16.20;;;;;;;13.47;66.92;100906.00;4977750;28;20121;-87
2022/04/29 09:35:52;;;;;;;22.73;17.05;;;;;;;13.54;66.06;100911.69;4977831;28;20026;-86
2022/04/29 09:41:02;;;;;;;23.02;16.60;;;;;;;13.64;66.41;100909.91;4997474;28;20037;-86
2022/04/29 09:43:34;;;;;;;22.27;16.33;;;;;;;13.53;65.96;100910.84;4998153;28;20029;-84
2022/04/29 09:46:16;;;;;;;22.60;15.63;;;;;;;13.60;66.12;100910.28;4981894;28;20044;-85
2022/04/29 09:49:03;;;;;;;19.70;14.85;;;;;;;13.67;66.13;100901.56;5015530;28;20057;-85
2022/04/29 09:51:49;;;;;;;21.95;16.40;;;;;;;13.73;65.29;100914.50;5015897;28;20022;-85
2022/04/29 09:54:26;;;;;;;20.73;15.98;;;;;;;13.73;64.55;100917.19;4998409;28;20567;-85
2022/04/29 09:57:06;;;;;;;23.92;15.32;;;;;;;13.75;64.90;100914.34;4981446;28;20463;-85
2022/04/29 09:59:33;;;;;;;19.83;15.07;;;;;;;13.66;65.12;100907.06;4981486;28;20026;-85
2022/04/29 10:01:58;;;;;;;20.40;15.65;;;;;;;13.68;65.36;100908.63;4981680;28;20032;-85
2022/04/29 10:04:24;;;;;;;21.67;15.02;;;;;;;13.71;65.07;100905.69;4997760;28;20058;-86
2022/04/29 10:06:49;;;;;;;21.25;14.40;;;;;;;13.77;64.74;100912.38;4981210;28;20034;-85
2022/04/29 10:09:15;;;;;;;22.45;14.65;;;;;;;13.82;64.75;100905.63;4997690;28;20558;-86
2022/04/29 10:11:42;;;;;;;16.45;12.80;;;;;;;13.93;65.05;100909.19;4997666;28;20033;-86
2022/04/29 10:14:08;;;;;;;20.75;15.15;;;;;;;13.98;63.81;100904.25;4997699;28;20038;-86
2022/04/29 10:16:34;;;;;;;18.70;14.23;;;;;;;14.04;64.03;100907.25;4997582;28;20034;-86
2022/04/29 10:21:50;;;;;;;20.33;14.32;;;;;;;14.07;64.32;100911.50;5000486;28;20096;-86
2022/04/29 10:24:16;;;;;;;20.20;14.45;;;;;;;14.08;63.79;100907.81;4981446;28;20029;-86
2022/04/29 10:26:41;;;;;;;20.35;14.52;;;;;;;14.13;63.72;100906.41;4997389;28;20025;-86
2022/04/29 10:29:07;;;;;;;18.88;14.10;;;;;;;14.09;63.66;100904.13;4997296;28;20527;-87
2022/04/29 10:31:33;;;;;;;20.55;14.00;;;;;;;14.21;63.42;100903.06;4997287;28;20026;-85
2022/04/29 10:34:28;;;;;;;18.77;13.27;;;;;;;14.17;63.02;100907.84;4997323;28;20040;-85
2022/04/29 10:36:53;;;;;;;18.50;14.48;;;;;;;14.10;62.69;100900.47;4980669;28;20084;-86
2022/04/29 10:39:20;;;;;;;19.83;13.52;;;;;;;14.07;63.11;100893.50;4997046;28;20033;-85
2022/04/29 10:42:04;;;;;;;19.75;13.80;;;;;;;14.09;63.01;100888.84;4981065;28;20109;-84
2022/04/29 10:44:30;;;;;;;21.88;14.25;;;;;;;14.18;63.02;100892.53;4997083;28;20026;-86
2022/04/29 10:46:55;;;;;;;17.85;13.20;;;;;;;14.28;63.11;100884.53;4996657;28;20045;-86
2022/04/29 10:49:28;;;;;;;18.35;12.70;;;;;;;14.34;63.02;100879.44;4980234;28;20022;-85
2022/04/29 10:52:00;;;;;;;18.30;12.93;;;;;;;14.36;62.17;100874.75;4980730;28;20034;-87
2022/04/29 10:54:34;;;;;;;19.20;14.32;;;;;;;14.38;61.67;100882.69;4980450;28;20034;-86
2022/04/29 10:57:04;;;;;;;19.90;13.20;;;;;;;14.38;61.86;100875.47;5014444;28;20032;-87
2022/04/29 11:00:07;;;;;;;24.50;12.65;;;;;;;14.41;62.34;100871.66;4980786;28;20026;-86
2022/04/29 11:02:35;;;;;;;25.40;14.10;;;;;;;14.42;61.56;100876.91;4960051;28;20128;-86
2022/04/29 11:05:02;;;;;;;18.80;13.88;;;;;;;14.38;62.64;100880.84;4980619;28;20498;-86
2022/04/29 11:07:38;;;;;;;18.15;12.95;;;;;;;14.37;62.80;100864.84;4980029;28;20030;-86
2022/04/29 11:10:05;;;;;;;19.95;13.02;;;;;;;14.42;62.44;100876.03;4978121;28;20123;-86
2022/04/29 11:12:30;;;;;;;16.80;12.50;;;;;;;14.44;62.81;100874.09;4977364;28;20021;-85
2022/04/29 11:15:14;;;;;;;14.82;11.45;;;;;;;14.53;62.40;100872.41;4986263;28;20025;-87
2022/04/29 11:17:40;;;;;;;20.80;13.05;;;;;;;14.57;62.07;100871.13;4991026;28;20187;-85
2022/04/29 11:20:13;;;;;;;15.73;12.88;;;;;;;14.55;62.25;100876.66;4976332;28;20113;-86
2022/04/29 11:25:22;;;;;;;16.73;11.60;;;;;;;14.33;60.37;100866.13;4998259;28;20041;-85
2022/04/29 11:27:50;;;;;;;18.10;11.80;;;;;;;14.33;60.42;100866.97;5012090;28;20022;-86
2022/04/29 11:30:15;;;;;;;16.33;11.68;;;;;;;14.29;59.99;100862.84;5013390;28;20022;-86
2022/04/29 11:32:42;;;;;;;15.98;11.15;;;;;;;14.32;59.64;100867.97;4978803;28;20036;-87
2022/04/29 11:35:08;;;;;;;16.35;11.45;;;;;;;14.38;59.66;100870.09;4991156;28;20029;-87
2022/04/29 11:37:34;;;;;;;16.60;10.30;;;;;;;14.46;60.29;100867.56;4991845;28;20545;-86
2022/04/29 11:40:06;;;;;;;13.52;10.90;;;;;;;14.46;58.50;100862.19;4995053;28;20060;-86
2022/04/29 11:42:31;;;;;;;15.68;10.55;;;;;;;14.44;58.55;100860.63;4993070;28;20029;-85
2022/04/29 11:45:10;;;;;;;17.83;11.57;;;;;;;14.49;59.32;100863.75;4994625;28;20018;-87
2022/04/29 11:47:36;;;;;;;18.42;11.18;;;;;;;14.57;59.67;100849.59;4993605;28;20018;-91
2022/04/29 11:50:03;;;;;;;15.10;10.68;;;;;;;14.59;59.73;100848.44;5009253;28;20063;-87
2022/04/29 11:52:32;;;;;;;17.77;11.13;;;;;;;14.64;59.56;100850.72;4979027;28;20033;-86
2022/04/29 11:54:58;;;;;;;14.80;10.70;;;;;;;14.64;59.21;100853.41;4979777;28;20030;-90
2022/04/29 11:57:27;;;;;;;16.98;10.27;;;;;;;14.64;59.37;100843.50;4979181;28;20084;-90